createdAt,value
2018-06-06T00:02:27.017Z,22.27
2018-06-06T00:04:57.468Z,23.38
2018-06-06T00:07:27.884Z,22.27
2018-06-06T00:09:58.305Z,18.17
2018-06-06T00:12:28.703Z,21.17
2018-06-06T00:14:59.124Z,22.52
2018-06-06T00:17:29.613Z,27.90
2018-06-06T00:20:00.067Z,21.73
2018-06-06T00:22:30.479Z,20.62
2018-06-06T00:25:00.937Z,21.60
2018-06-06T00:27:31.517Z,25.35
2018-06-06T00:30:01.941Z,21.65
2018-06-06T00:32:32.354Z,22.67
2018-06-06T00:35:02.790Z,23.62
2018-06-06T00:37:33.244Z,23.22
2018-06-06T00:40:03.890Z,22.02
2018-06-06T00:42:34.303Z,24.55
2018-06-06T00:45:04.768Z,26.65
2018-06-06T00:47:35.134Z,26.68
2018-06-06T00:50:05.636Z,21.23
2018-06-06T00:52:36.062Z,22.60
2018-06-06T00:55:23.336Z,23.60
2018-06-06T00:57:53.725Z,22.32
2018-06-06T01:00:24.125Z,24.18
2018-06-06T01:02:54.563Z,26.97
2018-06-06T01:05:25.027Z,26.42
2018-06-06T01:07:55.503Z,24.40
2018-06-06T01:10:25.895Z,24.63
2018-06-06T01:12:57.231Z,24.02
2018-06-06T01:15:27.653Z,23.98
2018-06-06T01:17:58.085Z,20.60
2018-06-06T01:20:28.589Z,24.63
2018-06-06T01:22:59.083Z,23.85
2018-06-06T01:25:29.488Z,21.65
2018-06-06T01:27:59.969Z,23.62
2018-06-06T01:30:30.379Z,24.67
2018-06-06T01:33:00.854Z,21.60
2018-06-06T01:35:31.270Z,24.77
2018-06-06T01:38:01.693Z,21.52
2018-06-06T01:40:32.141Z,28.57
2018-06-06T01:43:02.562Z,24.37
2018-06-06T01:45:32.984Z,26.87
2018-06-06T01:48:03.411Z,27.13
2018-06-06T01:50:34.249Z,26.70
2018-06-06T01:53:04.724Z,24.95
2018-06-06T01:55:35.103Z,24.07
2018-06-06T01:58:05.446Z,26.27
2018-06-06T02:00:36.527Z,26.02
2018-06-06T02:03:06.986Z,24.20
2018-06-06T02:05:37.460Z,31.15
2018-06-06T02:08:07.923Z,26.65
2018-06-06T02:10:38.421Z,25.10
2018-06-06T02:13:08.779Z,27.25
2018-06-06T02:15:39.121Z,27.15
2018-06-06T02:18:09.654Z,24.35
2018-06-06T02:20:40.078Z,25.20
2018-06-06T02:23:10.551Z,28.17
2018-06-06T02:25:41.032Z,29.10
2018-06-06T02:28:11.427Z,24.25
2018-06-06T02:30:41.864Z,23.38
2018-06-06T02:33:12.280Z,25.43
2018-06-06T02:35:42.680Z,24.92
2018-06-06T02:38:13.066Z,24.15
2018-06-06T02:40:43.542Z,26.23
2018-06-06T02:43:13.894Z,21.33
2018-06-06T02:45:44.284Z,28.47
2018-06-06T02:48:14.711Z,25.12
2018-06-06T02:50:45.182Z,29.18
2018-06-06T02:53:15.575Z,31.73
2018-06-06T02:55:46.094Z,25.35
2018-06-06T02:58:17.318Z,23.80
2018-06-06T03:00:47.734Z,30.50
2018-06-06T03:03:18.196Z,29.82
2018-06-06T03:05:48.623Z,29.77
2018-06-06T03:08:19.083Z,24.77
2018-06-06T03:10:49.890Z,28.77
2018-06-06T03:13:20.321Z,27.93
2018-06-06T03:15:50.802Z,27.73
2018-06-06T03:18:21.184Z,24.55
2018-06-06T03:20:51.599Z,27.00
2018-06-06T03:23:22.037Z,25.90
2018-06-06T03:25:52.429Z,28.20
2018-06-06T03:28:22.926Z,26.60
2018-06-06T03:30:54.173Z,23.52
2018-06-06T03:33:24.603Z,22.98
2018-06-06T03:35:55.038Z,24.15
2018-06-06T03:38:25.447Z,25.88
2018-06-06T03:40:55.855Z,24.07
2018-06-06T03:43:26.333Z,27.15
2018-06-06T03:45:56.725Z,27.82
2018-06-06T03:48:27.338Z,23.07
2018-06-06T03:50:57.860Z,26.40
2018-06-06T03:53:28.339Z,26.48
2018-06-06T03:55:58.960Z,24.95
2018-06-06T03:58:29.392Z,27.93
2018-06-06T04:00:59.905Z,28.55
2018-06-06T04:03:30.346Z,25.10
2018-06-06T04:06:00.800Z,24.30
2018-06-06T04:08:33.913Z,27.13
2018-06-06T04:11:05.930Z,24.37
2018-06-06T04:13:38.452Z,28.40
2018-06-06T04:16:08.927Z,29.70
2018-06-06T04:18:39.386Z,30.27
2018-06-06T04:21:09.870Z,25.25
2018-06-06T04:23:47.599Z,26.68
2018-06-06T04:26:20.699Z,31.90
2018-06-06T04:28:52.886Z,24.50
2018-06-06T04:31:23.522Z,27.10
2018-06-06T04:33:53.998Z,25.32
2018-06-06T04:36:24.504Z,29.07
2018-06-06T04:38:54.958Z,26.27
2018-06-06T04:41:26.428Z,24.12
2018-06-06T04:43:56.858Z,25.88
2018-06-06T04:46:27.342Z,28.70
2018-06-06T04:48:57.860Z,28.83
2018-06-06T04:51:28.336Z,28.12
2018-06-06T04:53:58.886Z,28.30
2018-06-06T04:56:29.384Z,25.65
2018-06-06T04:58:59.877Z,23.60
2018-06-06T05:01:30.336Z,26.77
2018-06-06T05:04:00.736Z,24.37
2018-06-06T05:06:31.156Z,23.67
2018-06-06T05:09:01.545Z,26.40
2018-06-06T05:11:32.044Z,22.87
2018-06-06T05:14:02.470Z,35.30
2018-06-06T05:16:32.837Z,20.88
2018-06-06T05:19:03.980Z,26.15
2018-06-06T05:21:34.380Z,21.52
2018-06-06T05:24:04.942Z,21.15
2018-06-06T05:26:35.431Z,25.77
2018-06-06T05:29:06.874Z,24.85
2018-06-06T05:31:40.664Z,23.15
2018-06-06T05:34:13.359Z,24.87
2018-06-06T05:36:45.619Z,23.98
2018-06-06T05:39:17.859Z,26.10
2018-06-06T05:41:50.665Z,20.85
2018-06-06T05:44:23.023Z,22.65
2018-06-06T05:46:56.089Z,23.35
2018-06-06T05:49:29.246Z,25.57
2018-06-06T05:51:59.921Z,24.30
2018-06-06T05:54:30.330Z,23.50
2018-06-06T05:57:00.754Z,23.75
2018-06-06T05:59:31.154Z,27.67
2018-06-06T06:02:01.666Z,21.97
2018-06-06T06:04:32.084Z,22.00
2018-06-06T06:07:02.513Z,23.57
2018-06-06T06:09:32.933Z,25.55
2018-06-06T06:12:03.416Z,21.70
2018-06-06T06:14:33.841Z,23.05
2018-06-06T06:17:04.313Z,26.20
2018-06-06T06:19:34.950Z,24.43
2018-06-06T06:22:05.446Z,21.82
2018-06-06T06:24:35.824Z,29.87
2018-06-06T06:27:06.328Z,27.30
2018-06-06T06:29:36.732Z,26.85
2018-06-06T06:32:07.224Z,25.82
2018-06-06T06:34:37.688Z,19.67
2018-06-06T06:37:08.052Z,24.37
2018-06-06T06:39:38.525Z,23.02
2018-06-06T06:42:08.949Z,31.45
2018-06-06T06:44:39.428Z,19.10
2018-06-06T06:47:09.887Z,25.00
2018-06-06T06:49:40.336Z,24.98
2018-06-06T06:52:11.676Z,25.97
2018-06-06T06:54:42.913Z,27.40
2018-06-06T06:57:16.203Z,22.22
2018-06-06T06:59:50.782Z,21.62
2018-06-06T07:02:31.384Z,19.65
2018-06-06T07:05:05.183Z,21.60
2018-06-06T07:07:41.473Z,23.65
2018-06-06T07:10:12.313Z,27.05
2018-06-06T07:12:42.809Z,20.50
2018-06-06T07:15:14.150Z,21.97
2018-06-06T07:17:44.739Z,22.25
2018-06-06T07:20:15.215Z,25.85
2018-06-06T07:22:47.190Z,27.80
2018-06-06T07:25:17.830Z,19.95
2018-06-06T07:27:48.720Z,21.87
2018-06-06T07:30:19.435Z,21.35
2018-06-06T07:32:50.064Z,20.88
2018-06-06T07:35:21.631Z,21.87
2018-06-06T07:37:57.250Z,24.37
2018-06-06T07:40:34.132Z,22.27
2018-06-06T07:43:08.757Z,24.20
2018-06-06T07:45:40.729Z,19.55
2018-06-06T07:48:12.232Z,19.15
2018-06-06T07:50:43.720Z,19.82
2018-06-06T07:53:14.707Z,27.50
2018-06-06T07:55:45.288Z,21.83
2018-06-06T07:58:15.738Z,23.43
2018-06-06T08:00:45.979Z,22.17
2018-06-06T08:03:18.756Z,22.75
2018-06-06T08:05:49.375Z,22.70
2018-06-06T08:08:20.635Z,22.73
2018-06-06T08:10:51.072Z,19.98
2018-06-06T08:13:21.650Z,25.82
2018-06-06T08:15:52.972Z,20.63
2018-06-06T08:18:23.582Z,26.90
2018-06-06T08:20:55.997Z,24.92
2018-06-06T08:23:28.006Z,25.33
2018-06-06T08:25:58.981Z,25.13
2018-06-06T08:28:30.413Z,24.70
2018-06-06T08:31:01.120Z,19.63
2018-06-06T08:33:31.537Z,24.23
2018-06-06T08:36:02.704Z,21.20
2018-06-06T08:38:33.186Z,27.02
2018-06-06T08:41:03.754Z,22.32
2018-06-06T08:43:35.061Z,22.63
2018-06-06T08:46:05.786Z,22.90
2018-06-06T08:48:40.535Z,24.15
2018-06-06T08:51:13.252Z,21.27
2018-06-06T08:53:46.156Z,21.87
2018-06-06T08:56:17.335Z,22.45
2018-06-06T08:58:48.476Z,26.30
2018-06-06T09:01:19.125Z,23.20
2018-06-06T09:03:50.651Z,24.65
2018-06-06T09:06:21.198Z,26.75
2018-06-06T09:08:52.379Z,21.02
2018-06-06T09:11:23.122Z,23.20
2018-06-06T09:13:54.621Z,21.25
2018-06-06T09:16:25.068Z,21.00
2018-06-06T09:18:58.702Z,20.60
2018-06-06T09:21:29.397Z,20.20
2018-06-06T09:24:00.066Z,18.80
2018-06-06T09:26:31.968Z,23.40
2018-06-06T09:29:02.471Z,24.50
2018-06-06T09:31:34.534Z,22.77
2018-06-06T09:34:04.991Z,26.87
2018-06-06T09:36:35.766Z,23.73
2018-06-06T09:39:08.956Z,24.87
2018-06-06T09:41:39.556Z,20.67
2018-06-06T09:44:12.133Z,22.13
2018-06-06T09:46:55.140Z,20.80
2018-06-06T09:49:47.097Z,23.73
2018-06-06T09:52:37.504Z,23.10
2018-06-06T09:55:40.122Z,21.10
2018-06-06T09:58:24.891Z,19.23
2018-06-06T10:01:10.062Z,18.20
2018-06-06T10:04:04.683Z,20.73
2018-06-06T10:06:48.822Z,20.10
2018-06-06T10:09:49.325Z,19.20
2018-06-06T10:12:36.901Z,19.87
2018-06-06T10:15:15.504Z,19.10
2018-06-06T10:17:56.497Z,18.80
2018-06-06T10:20:29.044Z,17.13
2018-06-06T10:23:00.622Z,18.50
2018-06-06T10:25:31.102Z,17.00
2018-06-06T10:28:01.552Z,17.03
2018-06-06T10:30:32.051Z,18.67
2018-06-06T10:33:02.547Z,17.33
2018-06-06T10:35:33.040Z,17.73
2018-06-06T10:38:08.664Z,18.80
2018-06-06T10:40:41.759Z,19.13
2018-06-06T10:43:12.479Z,18.50
2018-06-06T10:45:44.066Z,20.17
2018-06-06T10:48:14.697Z,16.63
2018-06-06T10:50:46.981Z,18.20
2018-06-06T10:53:17.437Z,17.90
2018-06-06T10:55:47.884Z,17.23
2018-06-06T10:58:18.344Z,17.30
2018-06-06T11:00:48.850Z,22.20
2018-06-06T11:03:19.312Z,21.27
2018-06-06T11:05:49.722Z,18.27
2018-06-06T11:08:20.231Z,18.13
2018-06-06T11:10:50.791Z,18.23
2018-06-06T11:13:21.231Z,17.83
2018-06-06T11:15:51.624Z,16.53
2018-06-06T11:18:22.087Z,16.60
2018-06-06T11:20:52.588Z,19.73
2018-06-06T11:23:23.618Z,17.20
2018-06-06T11:25:54.261Z,15.90
2018-06-06T11:28:24.725Z,15.13
2018-06-06T11:30:55.169Z,15.63
2018-06-06T11:33:25.571Z,15.57
2018-06-06T11:35:55.955Z,15.30
2018-06-06T11:38:26.361Z,15.33
2018-06-06T11:40:56.810Z,14.50
2018-06-06T11:43:27.286Z,15.37
2018-06-06T11:45:57.709Z,14.53
2018-06-06T11:48:28.067Z,13.83
2018-06-06T11:50:58.515Z,14.40
2018-06-06T11:53:28.957Z,15.83
2018-06-06T11:55:59.378Z,13.30
2018-06-06T11:58:29.799Z,13.57
2018-06-06T12:01:00.270Z,13.77
2018-06-06T12:03:30.653Z,14.30
2018-06-06T12:06:01.149Z,13.17
2018-06-06T12:08:31.607Z,16.83
2018-06-06T12:11:02.068Z,16.20
2018-06-06T12:13:32.557Z,15.67
2018-06-06T12:16:02.966Z,17.63
2018-06-06T12:18:33.645Z,13.53
2018-06-06T12:21:04.156Z,13.43
2018-06-06T12:23:34.617Z,10.50
2018-06-06T12:26:05.065Z,11.53
2018-06-06T12:28:35.485Z,10.50
2018-06-06T12:31:05.910Z,11.30
2018-06-06T12:33:36.311Z,13.60
2018-06-06T12:36:07.370Z,13.47
2018-06-06T12:38:40.532Z,10.87
2018-06-06T12:41:10.931Z,9.50
2018-06-06T12:43:41.329Z,11.40
2018-06-06T12:46:11.797Z,9.40
2018-06-06T12:48:42.238Z,10.20
2018-06-06T12:51:12.749Z,10.60
2018-06-06T12:53:43.109Z,16.00
2018-06-06T12:56:13.591Z,14.87
2018-06-06T12:58:44.051Z,13.50
2018-06-06T13:01:14.478Z,13.00
2018-06-06T13:03:44.876Z,12.17
2018-06-06T13:06:16.125Z,12.87
2018-06-06T13:08:46.502Z,9.50
2018-06-06T13:11:17.253Z,10.63
2018-06-06T13:13:47.714Z,8.60
2018-06-06T13:16:18.121Z,10.70
2018-06-06T13:18:48.588Z,10.83
2018-06-06T13:21:20.017Z,7.57
2018-06-06T13:23:50.445Z,10.10
2018-06-06T13:26:20.854Z,9.90
2018-06-06T13:28:51.238Z,9.50
2018-06-06T13:31:21.831Z,10.20
2018-06-06T13:33:52.191Z,11.30
2018-06-06T13:36:22.553Z,11.57
2018-06-06T13:38:53.010Z,12.30
2018-06-06T13:41:24.111Z,10.50
2018-06-06T13:43:54.453Z,14.43
2018-06-06T13:46:24.911Z,12.43
2018-06-06T13:48:55.316Z,12.00
2018-06-06T13:51:25.670Z,11.90
2018-06-06T13:53:56.097Z,11.40
2018-06-06T13:56:26.594Z,11.23
2018-06-06T13:58:56.971Z,11.50
2018-06-06T14:01:27.433Z,10.80
2018-06-06T14:03:57.874Z,11.83
2018-06-06T14:06:28.360Z,13.07
2018-06-06T14:08:58.855Z,12.67
2018-06-06T14:11:29.360Z,11.50
2018-06-06T14:13:59.832Z,11.07
2018-06-06T14:16:30.355Z,11.50
2018-06-06T14:19:00.786Z,11.00
2018-06-06T14:21:31.260Z,11.60
2018-06-06T14:24:01.723Z,10.60
2018-06-06T14:26:32.200Z,11.23
2018-06-06T14:29:02.701Z,10.47
2018-06-06T14:31:33.074Z,10.18
2018-06-06T14:34:03.529Z,10.98
2018-06-06T14:36:34.071Z,10.93
2018-06-06T14:39:06.670Z,10.07
2018-06-06T14:41:37.793Z,13.97
2018-06-06T14:44:08.292Z,10.20
2018-06-06T14:46:38.819Z,8.73
2018-06-06T14:49:09.250Z,10.33
2018-06-06T14:51:39.669Z,9.17
2018-06-06T14:54:10.130Z,9.50
2018-06-06T14:56:40.544Z,10.23
2018-06-06T14:59:11.108Z,9.60
2018-06-06T15:01:41.673Z,9.00
2018-06-06T15:04:12.095Z,10.40
2018-06-06T15:06:42.653Z,9.30
2018-06-06T15:09:13.072Z,9.33
2018-06-06T15:11:43.522Z,11.80
2018-06-06T15:14:13.985Z,9.70
2018-06-06T15:16:44.437Z,9.87
2018-06-06T15:19:14.876Z,13.53
2018-06-06T15:21:45.345Z,13.03
2018-06-06T15:24:15.916Z,10.00
2018-06-06T15:26:46.332Z,10.40
2018-06-06T15:29:17.471Z,11.90
2018-06-06T15:31:47.862Z,10.27
2018-06-06T15:34:18.266Z,10.33
2018-06-06T15:36:48.748Z,9.70
2018-06-06T15:39:19.197Z,9.20
2018-06-06T15:41:49.613Z,9.65
2018-06-06T15:44:20.092Z,9.50
2018-06-06T15:46:50.575Z,10.40
2018-06-06T15:49:21.054Z,10.37
2018-06-06T15:51:51.524Z,10.40
2018-06-06T15:54:32.552Z,11.60
2018-06-06T15:57:03.099Z,13.20
2018-06-06T15:59:33.623Z,10.13
2018-06-06T16:02:04.189Z,10.40
2018-06-06T16:04:34.844Z,10.20
2018-06-06T16:07:05.421Z,9.30
2018-06-06T16:09:36.868Z,10.43
2018-06-06T16:12:07.746Z,10.10
2018-06-06T16:14:38.248Z,9.03
2018-06-06T16:17:08.864Z,9.80
2018-06-06T16:19:39.375Z,10.03
2018-06-06T16:22:09.802Z,9.83
2018-06-06T16:24:40.378Z,12.83
2018-06-06T16:27:10.899Z,11.10
2018-06-06T16:29:41.551Z,10.03
2018-06-06T16:32:12.193Z,10.40
2018-06-06T16:34:42.690Z,12.47
2018-06-06T16:37:13.189Z,12.47
2018-06-06T16:39:43.765Z,12.65
2018-06-06T16:42:16.004Z,12.27
2018-06-06T16:44:46.577Z,13.10
2018-06-06T16:47:16.973Z,12.70
2018-06-06T16:49:47.462Z,14.30
2018-06-06T16:52:17.862Z,12.30
2018-06-06T16:54:48.422Z,13.73
2018-06-06T16:57:18.873Z,12.17
2018-06-06T16:59:49.503Z,11.83
2018-06-06T17:02:20.995Z,12.57
2018-06-06T17:04:51.511Z,13.10
2018-06-06T17:07:21.996Z,13.97
2018-06-06T17:09:52.432Z,12.80
2018-06-06T17:12:22.911Z,13.37
2018-06-06T17:14:53.379Z,13.30
2018-06-06T17:17:23.856Z,14.70
2018-06-06T17:19:54.461Z,14.00
2018-06-06T17:22:25.240Z,14.13
2018-06-06T17:24:55.814Z,13.70
2018-06-06T17:27:28.423Z,13.85
2018-06-06T17:29:59.124Z,13.70
2018-06-06T17:32:30.602Z,15.40
2018-06-06T17:35:00.978Z,14.97
2018-06-06T17:37:31.481Z,14.13
2018-06-06T17:40:01.933Z,14.60
2018-06-06T17:42:32.367Z,12.67
2018-06-06T17:45:03.307Z,14.70
2018-06-06T17:47:34.022Z,15.60
2018-06-06T17:50:04.943Z,15.10
2018-06-06T17:52:35.619Z,13.90
2018-06-06T17:55:06.217Z,18.40
2018-06-06T17:57:38.836Z,15.10
2018-06-06T18:00:13.067Z,15.98
2018-06-06T18:02:43.977Z,15.15
2018-06-06T18:05:16.533Z,14.80
2018-06-06T18:07:48.097Z,15.95
2018-06-06T18:10:18.823Z,14.55
2018-06-06T18:19:11.753Z,15.90
2018-06-06T18:21:44.562Z,14.03
2018-06-06T18:24:15.460Z,17.57
2018-06-06T18:26:46.041Z,14.07
2018-06-06T18:29:18.652Z,16.30
2018-06-06T18:31:49.246Z,13.15
2018-06-06T18:34:20.525Z,12.82
2018-06-06T18:36:51.100Z,13.85
2018-06-06T18:39:21.582Z,13.15
2018-06-06T18:41:52.178Z,15.40
2018-06-06T18:44:22.657Z,14.45
2018-06-06T18:46:53.240Z,11.80
2018-06-06T18:49:24.388Z,14.25
2018-06-06T18:51:56.445Z,11.78
2018-06-06T18:54:27.029Z,13.48
2018-06-06T18:56:57.198Z,12.10
2018-06-06T18:59:51.928Z,12.53
2018-06-06T19:02:22.411Z,12.28
2018-06-06T19:04:53.493Z,13.27
2018-06-06T19:07:24.002Z,11.73
2018-06-06T19:09:54.556Z,13.18
2018-06-06T19:12:25.118Z,12.60
2018-06-06T19:14:55.635Z,12.85
2018-06-06T19:17:26.737Z,13.10
2018-06-06T19:19:57.283Z,12.93
2018-06-06T19:22:27.690Z,12.65
2018-06-06T19:24:58.197Z,11.88
2018-06-06T19:27:28.603Z,14.53
2018-06-06T19:29:59.112Z,11.43
2018-06-06T19:32:29.794Z,11.10
2018-06-06T19:35:00.303Z,11.65
2018-06-06T19:37:30.745Z,12.18
2018-06-06T19:40:01.793Z,11.03
2018-06-06T19:42:32.267Z,13.78
2018-06-06T19:45:02.795Z,13.17
2018-06-06T19:47:33.337Z,12.78
2018-06-06T19:50:03.805Z,13.20
2018-06-06T19:52:35.203Z,12.35
2018-06-06T19:55:08.970Z,13.95
2018-06-06T19:57:39.876Z,13.83
2018-06-06T20:00:10.364Z,13.15
2018-06-06T20:02:40.861Z,12.00
2018-06-06T20:05:11.357Z,11.70
2018-06-06T20:07:41.946Z,12.40
2018-06-06T20:10:12.457Z,11.33
2018-06-06T20:12:43.699Z,12.30
2018-06-06T20:15:14.254Z,14.87
2018-06-06T20:17:44.764Z,15.80
2018-06-06T20:20:15.289Z,12.90
2018-06-06T20:22:45.757Z,13.85
2018-06-06T20:25:16.254Z,11.60
2018-06-06T20:27:46.765Z,11.00
2018-06-06T20:30:17.305Z,12.13
2018-06-06T20:32:47.761Z,9.63
2018-06-06T20:35:18.283Z,9.35
2018-06-06T20:37:48.715Z,9.83
2018-06-06T20:40:19.223Z,9.68
2018-06-06T20:42:49.665Z,9.78
2018-06-06T20:45:20.694Z,9.48
2018-06-06T20:47:51.243Z,11.45
2018-06-06T20:50:22.670Z,10.40
2018-06-06T20:52:53.311Z,8.00
2018-06-06T20:55:23.800Z,8.03
2018-06-06T20:57:54.528Z,10.78
2018-06-06T21:00:25.068Z,8.23
2018-06-06T21:02:55.590Z,8.48
2018-06-06T21:05:26.038Z,9.23
2018-06-06T21:07:56.581Z,8.10
2018-06-06T21:10:27.579Z,7.47
2018-06-06T21:12:57.740Z,6.78
2018-06-06T21:15:28.172Z,6.45
2018-06-06T21:17:58.562Z,7.45
2018-06-06T21:20:29.122Z,8.43
2018-06-06T21:22:59.722Z,7.75
2018-06-06T21:25:30.116Z,7.33
2018-06-06T21:28:00.511Z,7.53
2018-06-06T21:30:31.007Z,7.75
2018-06-06T21:33:01.496Z,8.08
2018-06-06T21:35:32.025Z,7.50
2018-06-06T21:38:02.516Z,8.25
2018-06-06T21:40:32.956Z,7.87
2018-06-06T21:43:03.373Z,9.73
2018-06-06T21:45:34.512Z,9.33
2018-06-06T21:48:05.694Z,7.62
2018-06-06T21:50:36.131Z,9.80
2018-06-06T21:53:06.694Z,7.72
2018-06-06T21:55:37.110Z,11.88
2018-06-06T21:58:07.547Z,9.50
2018-06-06T22:00:38.045Z,7.62
2018-06-06T22:03:08.553Z,8.53
2018-06-06T22:05:38.982Z,6.80
2018-06-06T22:08:09.364Z,7.78
2018-06-06T22:10:39.785Z,14.25
2018-06-06T22:13:10.290Z,7.42
2018-06-06T22:15:40.745Z,7.15
2018-06-06T22:18:11.150Z,7.95
2018-06-06T22:20:41.525Z,7.87
2018-06-06T22:23:12.051Z,7.20
2018-06-06T22:25:42.434Z,12.28
2018-06-06T22:28:12.801Z,7.75
2018-06-06T22:30:43.252Z,7.28
2018-06-06T22:33:13.677Z,8.73
2018-06-06T22:35:44.116Z,8.18
2018-06-06T22:38:14.645Z,10.23
2018-06-06T22:40:45.046Z,8.28
2018-06-06T22:43:15.486Z,11.83
2018-06-06T22:45:45.893Z,8.98
2018-06-06T22:48:16.356Z,8.13
2018-06-06T22:50:46.737Z,8.10
2018-06-06T22:53:17.160Z,8.40
2018-06-06T22:55:47.608Z,8.05
2018-06-06T22:58:18.068Z,11.57
2018-06-06T23:00:48.511Z,8.93
2018-06-06T23:03:19.005Z,9.05
2018-06-06T23:05:49.459Z,10.88
2018-06-06T23:08:19.917Z,9.35
2018-06-06T23:10:50.392Z,8.95
2018-06-06T23:13:20.852Z,8.68
2018-06-06T23:15:51.362Z,8.78
2018-06-06T23:18:21.863Z,9.43
2018-06-06T23:20:52.310Z,11.55
2018-06-06T23:23:22.756Z,9.85
2018-06-06T23:25:53.265Z,8.50
2018-06-06T23:28:23.730Z,10.43
2018-06-06T23:30:54.773Z,11.00
2018-06-06T23:33:25.156Z,13.40
2018-06-06T23:35:55.556Z,12.70
2018-06-06T23:38:26.005Z,10.43
2018-06-06T23:40:56.431Z,13.45
2018-06-06T23:43:26.803Z,11.12
2018-06-06T23:45:57.250Z,13.48
2018-06-06T23:48:27.719Z,13.68
2018-06-06T23:50:58.193Z,9.20
2018-06-06T23:53:28.614Z,11.90
2018-06-06T23:55:59.059Z,9.13
2018-06-06T23:58:29.446Z,20.82
